createdAt,value
2023-05-15T00:02:02.552Z,5.80
2023-05-15T00:04:29.711Z,5.63
2023-05-15T00:06:56.910Z,6.03
2023-05-15T00:09:24.147Z,5.80
2023-05-15T00:11:51.307Z,6.03
2023-05-15T00:14:18.438Z,5.47
2023-05-15T00:16:45.649Z,5.67
2023-05-15T00:19:12.822Z,6.10
2023-05-15T00:21:40.041Z,5.70
2023-05-15T00:24:07.278Z,6.20
2023-05-15T00:26:34.726Z,6.27
2023-05-15T00:29:01.858Z,6.50
2023-05-15T00:31:29.025Z,6.73
2023-05-15T00:33:56.137Z,6.33
2023-05-15T00:36:25.538Z,6.43
2023-05-15T00:38:53.878Z,6.47
2023-05-15T00:41:22.448Z,6.73
2023-05-15T00:43:52.138Z,7.00
2023-05-15T00:46:20.531Z,7.10
2023-05-15T00:48:48.274Z,7.33
2023-05-15T00:51:15.432Z,7.00
2023-05-15T00:53:43.439Z,7.40
2023-05-15T00:56:11.655Z,7.10
2023-05-15T00:58:39.179Z,7.20
2023-05-15T01:01:08.492Z,7.40
2023-05-15T01:03:36.722Z,8.00
2023-05-15T01:06:04.042Z,8.00
2023-05-15T01:08:44.209Z,7.53
2023-05-15T01:11:12.493Z,7.37
2023-05-15T01:13:39.726Z,7.67
2023-05-15T01:16:07.608Z,7.90
2023-05-15T01:18:34.835Z,8.07
2023-05-15T01:21:05.050Z,8.33
2023-05-15T01:23:38.331Z,8.03
2023-05-15T01:26:11.367Z,8.40
2023-05-15T01:28:46.730Z,7.60
2023-05-15T01:31:19.696Z,8.17
2023-05-15T01:33:47.880Z,8.90
2023-05-15T01:36:33.358Z,8.50
2023-05-15T01:39:02.853Z,8.53
2023-05-15T01:41:32.638Z,9.20
2023-05-15T01:44:08.089Z,9.00
2023-05-15T01:46:44.096Z,9.00
2023-05-15T01:49:13.866Z,9.07
2023-05-15T01:51:43.138Z,9.53
2023-05-15T01:54:11.414Z,9.50
2023-05-15T01:56:38.710Z,9.03
2023-05-15T01:59:06.286Z,8.50
2023-05-15T02:01:34.306Z,9.10
2023-05-15T02:04:02.766Z,8.73
2023-05-15T02:06:30.631Z,9.17
2023-05-15T02:08:58.833Z,8.40
2023-05-15T02:11:25.991Z,8.73
2023-05-15T02:13:53.755Z,8.90
2023-05-15T02:16:21.104Z,8.27
2023-05-15T02:18:48.327Z,7.97
2023-05-15T02:21:15.792Z,8.00
2023-05-15T02:23:42.954Z,8.13
2023-05-15T02:26:21.520Z,8.40
2023-05-15T02:28:53.800Z,8.77
2023-05-15T02:31:43.860Z,8.17
2023-05-15T02:34:18.980Z,8.90
2023-05-15T02:36:48.808Z,8.67
2023-05-15T02:39:16.935Z,8.97
2023-05-15T02:41:44.731Z,10.50
2023-05-15T02:44:12.781Z,8.90
2023-05-15T02:46:40.311Z,9.27
2023-05-15T02:49:07.921Z,9.80
2023-05-15T02:51:35.379Z,10.53
2023-05-15T02:54:02.941Z,10.43
2023-05-15T02:56:30.056Z,10.00
2023-05-15T02:58:57.250Z,9.37
2023-05-15T03:01:24.520Z,9.77
2023-05-15T03:03:51.687Z,9.40
2023-05-15T03:06:18.887Z,10.87
2023-05-15T03:08:46.019Z,9.07
2023-05-15T03:11:14.231Z,8.70
2023-05-15T03:13:41.454Z,8.30
2023-05-15T03:16:08.630Z,8.67
2023-05-15T03:18:35.776Z,8.50
2023-05-15T03:21:02.916Z,8.73
2023-05-15T03:23:31.493Z,8.90
2023-05-15T03:25:58.909Z,8.63
2023-05-15T03:28:26.265Z,8.10
2023-05-15T03:30:53.444Z,8.03
2023-05-15T03:33:20.587Z,8.50
2023-05-15T03:35:47.768Z,7.60
2023-05-15T03:38:14.910Z,7.30
2023-05-15T03:40:42.068Z,8.40
2023-05-15T03:43:09.181Z,8.00
2023-05-15T03:45:36.976Z,7.73
2023-05-15T03:48:04.201Z,7.80
2023-05-15T03:50:31.424Z,7.43
2023-05-15T03:52:58.592Z,8.00
2023-05-15T03:55:26.036Z,6.87
2023-05-15T03:57:53.373Z,7.27
2023-05-15T04:00:20.598Z,7.43
2023-05-15T04:02:47.773Z,7.13
2023-05-15T04:05:15.032Z,7.03
2023-05-15T04:07:42.207Z,6.20
2023-05-15T04:10:09.429Z,6.10
2023-05-15T04:12:36.614Z,6.30
2023-05-15T04:15:16.021Z,6.13
2023-05-15T04:17:43.910Z,4.70
2023-05-15T04:20:11.446Z,3.90
2023-05-15T04:22:38.608Z,3.93
2023-05-15T04:25:05.881Z,3.63
2023-05-15T04:27:32.988Z,3.70
2023-05-15T04:30:01.778Z,3.10
2023-05-15T04:32:28.957Z,3.43
2023-05-15T04:34:56.215Z,3.10
2023-05-15T04:37:23.417Z,3.53
2023-05-15T04:39:50.588Z,2.57
2023-05-15T04:42:17.715Z,2.83
2023-05-15T04:44:44.867Z,2.70
2023-05-15T04:47:12.092Z,2.70
2023-05-15T04:49:39.603Z,2.50
2023-05-15T04:52:06.715Z,2.10
2023-05-15T04:54:33.887Z,2.30
2023-05-15T04:57:01.388Z,2.35
2023-05-15T04:59:28.796Z,2.08
2023-05-15T05:01:56.069Z,2.00
2023-05-15T05:04:23.338Z,1.92
2023-05-15T05:06:50.716Z,2.25
2023-05-15T05:09:19.380Z,2.30
2023-05-15T05:11:46.728Z,1.95
2023-05-15T05:14:14.765Z,2.30
2023-05-15T05:16:42.132Z,1.90
2023-05-15T05:19:09.525Z,2.00
2023-05-15T05:21:36.763Z,2.30
2023-05-15T05:24:03.984Z,1.95
2023-05-15T05:26:31.185Z,2.05
2023-05-15T05:28:58.332Z,2.20
2023-05-15T05:31:25.507Z,2.20
2023-05-15T05:33:52.855Z,2.10
2023-05-15T05:36:20.031Z,2.55
2023-05-15T05:38:47.196Z,2.00
2023-05-15T05:41:14.405Z,2.22
2023-05-15T05:43:41.579Z,2.58
2023-05-15T05:46:08.788Z,2.50
2023-05-15T05:48:36.519Z,2.17
2023-05-15T05:51:03.684Z,2.63
2023-05-15T05:53:30.826Z,2.50
2023-05-15T05:55:57.962Z,2.50
2023-05-15T05:58:26.288Z,2.20
2023-05-15T06:00:54.108Z,2.45
2023-05-15T06:03:21.557Z,2.47
2023-05-15T06:05:48.804Z,2.53
2023-05-15T06:08:15.979Z,2.65
2023-05-15T06:10:43.075Z,2.47
2023-05-15T06:13:10.169Z,2.50
2023-05-15T06:15:37.598Z,2.70
2023-05-15T06:18:04.866Z,2.40
2023-05-15T06:20:32.099Z,2.60
2023-05-15T06:22:59.200Z,2.10
2023-05-15T06:25:26.309Z,2.65
2023-05-15T06:27:53.430Z,2.50
2023-05-15T06:30:20.512Z,2.90
2023-05-15T06:32:47.670Z,3.15
2023-05-15T06:35:14.769Z,2.47
2023-05-15T06:37:41.910Z,2.92
2023-05-15T06:40:09.315Z,2.75
2023-05-15T06:42:36.436Z,2.60
2023-05-15T06:45:03.608Z,3.30
2023-05-15T06:47:30.716Z,3.40
2023-05-15T06:49:57.798Z,3.70
2023-05-15T06:52:24.896Z,3.97
2023-05-15T06:54:52.198Z,4.07
2023-05-15T06:57:19.849Z,3.85
2023-05-15T06:59:47.059Z,4.50
2023-05-15T07:02:14.333Z,4.18
2023-05-15T07:04:41.517Z,4.18
2023-05-15T07:07:08.658Z,4.47
2023-05-15T07:09:35.844Z,4.63
2023-05-15T07:12:03.789Z,5.57
2023-05-15T07:14:30.897Z,5.38
2023-05-15T07:16:58.011Z,5.88
2023-05-15T07:19:25.129Z,5.90
2023-05-15T07:21:52.319Z,5.25
2023-05-15T07:24:19.447Z,4.68
2023-05-15T07:26:57.585Z,4.47
2023-05-15T07:29:26.242Z,4.25
2023-05-15T07:31:53.746Z,4.43
2023-05-15T07:34:21.072Z,4.20
2023-05-15T07:36:48.148Z,4.78
2023-05-15T07:39:15.983Z,3.90
2023-05-15T07:41:43.140Z,4.30
2023-05-15T07:44:10.284Z,3.70
2023-05-15T07:46:38.897Z,3.88
2023-05-15T07:49:06.208Z,3.60
2023-05-15T07:51:33.325Z,3.50
2023-05-15T07:54:00.798Z,3.10
2023-05-15T07:56:28.221Z,3.45
2023-05-15T07:58:55.417Z,3.30
2023-05-15T08:01:22.560Z,3.22
2023-05-15T08:03:49.780Z,3.55
2023-05-15T08:06:16.975Z,3.67
2023-05-15T08:08:44.148Z,3.15
2023-05-15T08:11:11.248Z,2.90
2023-05-15T08:13:38.347Z,2.85
2023-05-15T08:16:06.105Z,2.88
2023-05-15T08:18:33.387Z,2.97
2023-05-15T08:21:01.582Z,2.72
2023-05-15T08:23:29.532Z,2.92
2023-05-15T08:25:56.616Z,3.00
2023-05-15T08:28:23.752Z,3.00
2023-05-15T08:30:50.870Z,3.15
2023-05-15T08:33:18.071Z,3.15
2023-05-15T08:35:45.278Z,2.97
2023-05-15T08:38:12.426Z,3.05
2023-05-15T08:40:41.276Z,3.08
2023-05-15T08:43:15.142Z,3.08
2023-05-15T08:45:42.498Z,2.92
2023-05-15T08:48:11.942Z,3.00
2023-05-15T08:50:40.208Z,3.17
2023-05-15T08:53:07.473Z,2.80
2023-05-15T08:55:34.663Z,2.72
2023-05-15T08:58:02.228Z,2.78
2023-05-15T09:00:29.631Z,3.10
2023-05-15T09:02:59.220Z,3.15
2023-05-15T09:05:26.902Z,2.80
2023-05-15T09:07:55.508Z,2.60
2023-05-15T09:10:23.076Z,2.78
2023-05-15T09:12:51.559Z,2.78
2023-05-15T09:15:22.463Z,2.72
2023-05-15T09:17:50.154Z,2.80
2023-05-15T09:20:32.580Z,2.80
2023-05-15T09:23:00.722Z,2.80
2023-05-15T09:25:41.668Z,3.00
2023-05-15T09:28:12.542Z,2.70
2023-05-15T09:30:39.930Z,2.90
2023-05-15T09:33:07.420Z,2.88
2023-05-15T09:35:35.672Z,2.35
2023-05-15T09:38:04.064Z,2.67
2023-05-15T09:40:34.217Z,2.80
2023-05-15T09:43:01.399Z,2.90
2023-05-15T09:45:30.258Z,2.95
2023-05-15T09:48:00.693Z,2.80
2023-05-15T09:50:34.302Z,3.30
2023-05-15T09:53:01.500Z,2.90
2023-05-15T09:55:29.184Z,3.03
2023-05-15T09:58:06.471Z,3.00
2023-05-15T10:00:34.249Z,3.38
2023-05-15T10:03:05.278Z,3.42
2023-05-15T10:05:43.093Z,3.55
2023-05-15T10:08:11.666Z,3.60
2023-05-15T10:10:39.082Z,3.83
2023-05-15T10:13:07.922Z,3.75
2023-05-15T10:15:35.305Z,4.00
2023-05-15T10:18:04.989Z,3.40
2023-05-15T10:20:35.687Z,3.53
2023-05-15T10:23:04.639Z,3.67
2023-05-15T10:25:51.247Z,3.50
2023-05-15T10:28:19.777Z,3.35
2023-05-15T10:30:46.997Z,3.50
2023-05-15T10:33:14.297Z,3.40
2023-05-15T10:35:41.831Z,3.03
2023-05-15T10:38:09.337Z,3.20
2023-05-15T10:40:37.927Z,3.03
2023-05-15T10:43:06.252Z,3.30
2023-05-15T10:45:34.073Z,3.20
2023-05-15T10:48:02.709Z,3.60
2023-05-15T10:50:29.932Z,2.95
2023-05-15T10:52:57.157Z,3.50
2023-05-15T10:55:24.504Z,3.20
2023-05-15T10:57:51.794Z,3.42
2023-05-15T11:00:31.206Z,3.25
2023-05-15T11:02:59.239Z,3.15
2023-05-15T11:05:27.022Z,3.05
2023-05-15T11:08:12.677Z,3.13
2023-05-15T11:10:40.061Z,3.45
2023-05-15T11:13:07.221Z,3.53
2023-05-15T11:15:44.453Z,3.00
2023-05-15T11:18:12.181Z,2.95
2023-05-15T11:20:54.129Z,3.05
2023-05-15T11:23:25.894Z,3.47
2023-05-15T11:25:58.976Z,3.40
2023-05-15T11:28:30.048Z,3.20
2023-05-15T11:31:07.148Z,3.20
2023-05-15T11:33:34.412Z,3.15
2023-05-15T11:36:01.634Z,3.20
2023-05-15T11:38:28.738Z,3.15
2023-05-15T11:40:56.694Z,2.97
2023-05-15T11:43:27.353Z,3.20
2023-05-15T11:45:58.627Z,2.92
2023-05-15T11:48:26.590Z,3.15
2023-05-15T11:50:53.994Z,2.85
2023-05-15T11:53:23.955Z,3.78
2023-05-15T11:55:52.818Z,3.28
2023-05-15T11:58:21.146Z,3.30
2023-05-15T12:00:49.100Z,3.40
2023-05-15T12:03:16.337Z,3.05
2023-05-15T12:05:56.999Z,3.25
2023-05-15T12:08:25.950Z,3.10
2023-05-15T12:10:53.106Z,3.42
2023-05-15T12:13:20.409Z,3.00
2023-05-15T12:15:47.906Z,3.00
2023-05-15T12:18:14.985Z,2.80
2023-05-15T12:20:46.852Z,2.67
2023-05-15T12:23:17.730Z,2.75
2023-05-15T12:25:47.140Z,2.83
2023-05-15T12:28:14.668Z,2.90
2023-05-15T12:30:42.686Z,3.15
2023-05-15T12:33:10.500Z,3.20
2023-05-15T12:35:42.117Z,3.00
2023-05-15T12:38:09.655Z,3.28
2023-05-15T12:40:37.428Z,3.08
2023-05-15T12:43:08.129Z,2.88
2023-05-15T12:45:37.371Z,3.10
2023-05-15T12:48:04.859Z,2.90
2023-05-15T12:50:35.940Z,3.22
2023-05-15T12:53:04.107Z,3.30
2023-05-15T12:55:32.501Z,3.10
2023-05-15T12:58:07.060Z,3.40
2023-05-15T13:00:34.876Z,2.95
2023-05-15T13:03:02.497Z,3.03
2023-05-15T13:05:32.096Z,3.03
2023-05-15T13:08:00.640Z,2.78
2023-05-15T13:10:28.039Z,2.88
2023-05-15T13:12:56.740Z,2.80
2023-05-15T13:15:29.848Z,2.97
2023-05-15T13:18:00.949Z,2.80
2023-05-15T13:20:29.354Z,3.10
2023-05-15T13:22:56.484Z,3.00
2023-05-15T13:25:23.566Z,3.30
2023-05-15T13:27:51.138Z,2.80
2023-05-15T13:30:19.076Z,3.10
2023-05-15T13:32:46.341Z,3.20
2023-05-15T13:35:13.730Z,3.20
2023-05-15T13:37:40.872Z,3.30
2023-05-15T13:40:12.369Z,3.10
2023-05-15T13:42:40.659Z,3.00
2023-05-15T13:45:12.333Z,3.17
2023-05-15T13:47:39.901Z,3.30
2023-05-15T13:50:07.883Z,2.75
2023-05-15T13:52:35.188Z,2.90
2023-05-15T13:55:02.422Z,3.10
2023-05-15T13:57:29.584Z,3.38
2023-05-15T13:59:56.686Z,3.42
2023-05-15T14:02:26.476Z,3.13
2023-05-15T14:04:53.995Z,3.22
2023-05-15T14:07:24.283Z,3.10
2023-05-15T14:09:51.676Z,3.17
2023-05-15T14:12:18.948Z,3.20
2023-05-15T14:14:47.077Z,3.20
2023-05-15T14:17:15.023Z,3.10
2023-05-15T14:19:42.274Z,3.00
2023-05-15T14:22:09.502Z,3.03
2023-05-15T14:24:36.633Z,2.70
2023-05-15T14:27:03.780Z,2.70
2023-05-15T14:29:31.044Z,3.17
2023-05-15T14:31:58.284Z,3.20
2023-05-15T14:34:25.524Z,2.97
2023-05-15T14:36:52.693Z,2.90
2023-05-15T14:39:19.821Z,3.15
2023-05-15T14:41:47.133Z,2.70
2023-05-15T14:44:14.271Z,2.45
2023-05-15T14:46:43.047Z,2.58
2023-05-15T14:49:10.433Z,2.90
2023-05-15T14:51:37.623Z,2.53
2023-05-15T14:54:05.139Z,2.50
2023-05-15T14:56:32.541Z,3.10
2023-05-15T14:58:59.657Z,2.92
2023-05-15T15:01:26.945Z,2.72
2023-05-15T15:03:54.269Z,2.55
2023-05-15T15:06:21.446Z,2.60
2023-05-15T15:08:48.782Z,2.70
2023-05-15T15:11:16.063Z,2.67
2023-05-15T15:13:43.141Z,2.83
2023-05-15T15:16:10.288Z,2.50
2023-05-15T15:18:37.531Z,3.00
2023-05-15T15:21:04.985Z,2.90
2023-05-15T15:23:32.118Z,2.53
2023-05-15T15:25:59.277Z,2.65
2023-05-15T15:28:26.506Z,2.53
2023-05-15T15:30:54.009Z,2.97
2023-05-15T15:33:21.117Z,2.58
2023-05-15T15:35:48.267Z,2.45
2023-05-15T15:38:15.437Z,2.50
2023-05-15T15:40:42.556Z,2.63
2023-05-15T15:43:09.665Z,2.50
2023-05-15T15:45:36.802Z,2.65
2023-05-15T15:48:04.027Z,3.05
2023-05-15T15:50:31.210Z,2.40
2023-05-15T15:52:58.422Z,2.38
2023-05-15T15:55:25.852Z,2.90
2023-05-15T15:57:52.973Z,2.80
2023-05-15T16:00:20.222Z,2.70
2023-05-15T16:02:47.461Z,2.70
2023-05-15T16:05:14.869Z,3.10
2023-05-15T16:07:43.190Z,2.60
2023-05-15T16:10:13.368Z,2.88
2023-05-15T16:12:42.266Z,2.72
2023-05-15T16:15:21.630Z,2.88
2023-05-15T16:17:52.534Z,2.65
2023-05-15T16:20:20.141Z,2.75
2023-05-15T16:22:47.290Z,2.63
2023-05-15T16:25:14.408Z,2.67
2023-05-15T16:27:41.568Z,2.90
2023-05-15T16:30:09.400Z,2.58
2023-05-15T16:32:36.601Z,2.88
2023-05-15T16:35:03.965Z,2.40
2023-05-15T16:37:31.078Z,3.00
2023-05-15T16:39:58.378Z,2.65
2023-05-15T16:42:25.588Z,2.47
2023-05-15T16:44:52.695Z,2.72
2023-05-15T16:47:19.826Z,2.85
2023-05-15T16:49:49.872Z,2.80
2023-05-15T16:52:17.329Z,3.10
2023-05-15T16:54:44.450Z,3.22
2023-05-15T16:57:11.540Z,2.80
2023-05-15T16:59:38.712Z,3.22
2023-05-15T17:02:05.936Z,3.20
2023-05-15T17:04:35.149Z,3.00
2023-05-15T17:07:02.308Z,3.08
2023-05-15T17:09:29.457Z,3.35
2023-05-15T17:11:56.731Z,3.42
2023-05-15T17:14:23.903Z,3.35
2023-05-15T17:16:51.045Z,3.22
2023-05-15T17:19:18.283Z,3.42
2023-05-15T17:21:46.245Z,3.55
2023-05-15T17:24:15.009Z,3.40
2023-05-15T17:26:42.210Z,3.42
2023-05-15T17:29:10.941Z,3.30
2023-05-15T17:31:39.187Z,3.40
2023-05-15T17:34:06.321Z,3.30
2023-05-15T17:36:36.496Z,3.05
2023-05-15T17:39:03.836Z,3.28
2023-05-15T17:41:31.044Z,2.95
2023-05-15T17:43:58.151Z,2.95
2023-05-15T17:46:25.275Z,3.08
2023-05-15T17:48:53.207Z,2.95
2023-05-15T17:51:20.383Z,3.03
2023-05-15T17:53:48.071Z,2.65
2023-05-15T17:56:15.317Z,2.78
2023-05-15T17:58:42.423Z,2.88
2023-05-15T18:01:09.587Z,2.53
2023-05-15T18:03:37.054Z,2.70
2023-05-15T18:06:05.154Z,3.08
2023-05-15T18:08:32.310Z,3.35
2023-05-15T18:10:59.455Z,3.50
2023-05-15T18:13:26.573Z,3.80
2023-05-15T18:15:53.697Z,3.60
2023-05-15T18:18:20.822Z,3.90
2023-05-15T18:20:47.890Z,4.10
2023-05-15T18:23:16.738Z,3.83
2023-05-15T18:25:44.521Z,3.80
2023-05-15T18:28:11.625Z,4.10
2023-05-15T18:30:38.740Z,3.70
2023-05-15T18:33:06.007Z,3.70
2023-05-15T18:35:33.255Z,3.73
2023-05-15T18:38:00.487Z,4.13
2023-05-15T18:40:27.639Z,3.90
2023-05-15T18:42:56.188Z,4.10
2023-05-15T18:45:23.609Z,3.83
2023-05-15T18:47:51.107Z,3.77
2023-05-15T18:50:19.307Z,4.30
2023-05-15T18:52:46.746Z,4.03
2023-05-15T18:55:14.677Z,3.90
2023-05-15T18:57:42.441Z,4.00
2023-05-15T19:00:09.800Z,4.00
2023-05-15T19:02:40.305Z,4.10
2023-05-15T19:05:08.164Z,3.87
2023-05-15T19:07:35.357Z,4.23
2023-05-15T19:10:02.605Z,4.03
2023-05-15T19:12:29.797Z,4.10
2023-05-15T19:14:56.934Z,3.60
2023-05-15T19:17:24.428Z,3.53
2023-05-15T19:19:52.186Z,3.90
2023-05-15T19:22:19.741Z,3.90
2023-05-15T19:24:47.171Z,3.73
2023-05-15T19:27:14.757Z,4.20
2023-05-15T19:29:42.970Z,3.73
2023-05-15T19:32:10.283Z,3.90
2023-05-15T19:34:37.719Z,4.00
2023-05-15T19:37:04.846Z,3.50
2023-05-15T19:39:33.589Z,4.27
2023-05-15T19:42:00.826Z,3.90
2023-05-15T19:44:27.990Z,3.60
2023-05-15T19:46:55.279Z,4.37
2023-05-15T19:49:22.421Z,3.93
2023-05-15T19:51:49.520Z,4.10
2023-05-15T19:54:16.692Z,3.73
2023-05-15T19:56:44.533Z,4.30
2023-05-15T19:59:11.658Z,3.90
2023-05-15T20:01:38.763Z,3.97
2023-05-15T20:04:05.935Z,3.83
2023-05-15T20:06:33.165Z,3.93
2023-05-15T20:09:00.270Z,4.10
2023-05-15T20:11:27.650Z,4.00
2023-05-15T20:13:54.822Z,4.00
2023-05-15T20:16:22.082Z,4.30
2023-05-15T20:18:50.441Z,3.83
2023-05-15T20:21:17.627Z,4.00
2023-05-15T20:23:44.712Z,4.40
2023-05-15T20:26:11.853Z,4.27
2023-05-15T20:28:38.962Z,4.30
2023-05-15T20:31:06.040Z,4.33
2023-05-15T20:33:33.233Z,4.30
2023-05-15T20:36:00.568Z,4.10
2023-05-15T20:38:28.286Z,4.23
2023-05-15T20:40:56.589Z,4.73
2023-05-15T20:43:23.906Z,4.40
2023-05-15T20:45:51.772Z,4.67
2023-05-15T20:48:18.906Z,4.20
2023-05-15T20:50:46.271Z,4.37
2023-05-15T20:53:13.400Z,4.80
2023-05-15T20:55:40.712Z,4.10
2023-05-15T20:58:07.876Z,4.90
2023-05-15T21:00:35.032Z,4.80
2023-05-15T21:03:02.740Z,4.63
2023-05-15T21:05:29.927Z,5.20
2023-05-15T21:07:57.081Z,4.97
2023-05-15T21:10:24.339Z,4.83
2023-05-15T21:12:51.529Z,4.80
2023-05-15T21:15:18.648Z,4.97
2023-05-15T21:17:46.035Z,5.00
2023-05-15T21:20:13.261Z,5.00
2023-05-15T21:22:41.092Z,4.93
2023-05-15T21:25:08.437Z,5.20
2023-05-15T21:27:35.567Z,5.00
2023-05-15T21:30:02.711Z,5.47
2023-05-15T21:32:29.956Z,5.20
2023-05-15T21:34:57.111Z,5.10
2023-05-15T21:37:24.314Z,5.60
2023-05-15T21:39:51.431Z,5.40
2023-05-15T21:42:18.773Z,5.27
2023-05-15T21:44:45.929Z,4.90
2023-05-15T21:47:13.057Z,4.80
2023-05-15T21:49:40.161Z,5.30
2023-05-15T21:52:07.288Z,5.20
2023-05-15T21:54:34.391Z,5.00
2023-05-15T21:57:01.487Z,5.23
2023-05-15T21:59:28.636Z,5.50
2023-05-15T22:01:55.980Z,5.77
2023-05-15T22:04:23.175Z,5.23
2023-05-15T22:06:50.962Z,5.33
2023-05-15T22:09:18.077Z,5.77
2023-05-15T22:11:45.192Z,5.80
2023-05-15T22:14:12.475Z,5.50
2023-05-15T22:16:39.706Z,5.90
2023-05-15T22:19:07.946Z,5.93
2023-05-15T22:21:37.382Z,6.00
2023-05-15T22:24:04.556Z,5.60
2023-05-15T22:26:33.222Z,5.60
2023-05-15T22:29:00.346Z,4.93
2023-05-15T22:31:27.445Z,5.40
2023-05-15T22:33:54.572Z,5.03
2023-05-15T22:36:21.843Z,4.97
2023-05-15T22:38:49.008Z,5.57
2023-05-15T22:41:16.144Z,5.20
2023-05-15T22:43:43.317Z,5.40
2023-05-15T22:46:10.519Z,6.10
2023-05-15T22:48:37.779Z,6.07
2023-05-15T22:51:05.150Z,5.73
2023-05-15T22:53:32.304Z,6.20
2023-05-15T22:55:59.450Z,6.37
2023-05-15T22:58:26.569Z,5.93
2023-05-15T23:00:53.788Z,5.80
2023-05-15T23:03:21.314Z,6.00
2023-05-15T23:05:48.581Z,6.10
2023-05-15T23:08:15.742Z,6.27
2023-05-15T23:10:42.911Z,6.13
2023-05-15T23:13:10.162Z,5.93
2023-05-15T23:15:37.319Z,6.10
2023-05-15T23:18:05.445Z,6.07
2023-05-15T23:20:32.659Z,6.07
2023-05-15T23:22:59.775Z,6.67
2023-05-15T23:25:26.910Z,6.53
2023-05-15T23:27:54.070Z,6.17
2023-05-15T23:30:21.243Z,6.20
2023-05-15T23:32:48.426Z,6.03
2023-05-15T23:35:15.647Z,6.40
2023-05-15T23:37:42.839Z,6.37
2023-05-15T23:40:10.607Z,7.20
2023-05-15T23:42:37.701Z,6.60
2023-05-15T23:45:04.994Z,6.27
2023-05-15T23:47:32.138Z,6.50
2023-05-15T23:49:59.375Z,6.43
2023-05-15T23:52:26.540Z,6.43
2023-05-15T23:54:53.688Z,6.70
2023-05-15T23:57:20.811Z,6.23
2023-05-15T23:59:47.909Z,6.27
